Nearby METAR Reports

 

KHFD - Hartford/Brainard Arpt, Connecticut, USA
Distance from station: NE 5mi, 8km
Updated: Mon, 07/15/2024 9:53am
Clear
Clear
 Wind from SSW
Wind: SSW 8 mph, 13 km/h
Temperature: 84°F, 29°C
Heat Index: 90°F, 32°C
Dew Point: 73°F, 23°C
Humidity: 70%
Barometer: 29.88 inHg, 1011.9 hPa
Clouds: Clear
Visibility: 10 miles, 16 km
2024/07/15 13:53 KHFD 151353Z 20007KT 10SM CLR 29/23 A2988 RMK AO2 SLP118 T02940228
K4B8 - Plainville/Robertson Fld, Connecticut, USA
Distance from station: W 7mi, 12km
Updated: Mon, 07/15/2024 9:55am
Clear
Clear
 Wind from varies
Wind: varies 5 mph, 7 km/h
Temperature: 86°F, 30°C
Heat Index: 93°F, 34°C
Dew Point: 73°F, 23°C
Humidity: 66%
Barometer: 29.89 inHg, 1012.2 hPa
Clouds: Clear
Visibility: 10 miles, 16 km
2024/07/15 13:55 K4B8 151355Z AUTO VRB04KT 10SM CLR 30/23 A2989 RMK AO2 T02960228
 
KMMK - Meriden/Markham Muni, Connecticut, USA
Distance from station: SSW 14mi, 22km
Updated: Mon, 07/15/2024 9:53am
Clear
Clear
 Wind from SSW
Wind: SSW 6 mph, 9 km/h
Temperature: 82°F, 28°C
Heat Index: 86°F, 30°C
Dew Point: 70°F, 21°C
Humidity: 66%
Barometer: 29.90 inHg, 1012.5 hPa
Clouds: Clear
Visibility: 10 miles, 16 km
2024/07/15 13:53 KMMK 151353Z AUTO 20005KT 10SM CLR 28/21 A2990 RMK AO2 SLP121 T02830211
KBDL - Hartford/Bradley Intl, Connecticut, USA
Distance from station: N 17mi, 27km
Updated: Mon, 07/15/2024 9:51am
Few Clouds
Few Clouds
 Wind from SSW
Wind: SSW 8 mph, 13 km/h
Temperature: 88°F, 31°C
Heat Index: 96°F, 36°C
Dew Point: 73°F, 23°C
Humidity: 62%
Barometer: 29.88 inHg, 1011.9 hPa
Clouds: Few Clouds
Visibility: 10 miles, 16 km
Cloud details: Few Clouds 10000 ft
Few Clouds 25000 ft
2024/07/15 13:51 KBDL 151351Z 20007KT 10SM FEW100 FEW250 31/23 A2988 RMK AO2 SLP117 T03060228
 
KSNC - Chester Arpt, Connecticut, USA
Distance from station: SSE 24mi, 39km
Updated: Mon, 07/15/2024 9:55am
Clear
Clear
 Wind from varies
Wind: varies 5 mph, 7 km/h
Temperature: 82°F, 28°C
Heat Index: 87°F, 31°C
Dew Point: 73°F, 23°C
Humidity: 74%
Barometer: 29.92 inHg, 1013.2 hPa
Clouds: Clear
Visibility: 10 miles, 16 km
2024/07/15 13:55 KSNC 151355Z AUTO VRB04KT 10SM CLR 28/23 A2992 RMK AO2
KOXC - Oxford Arpt, Connecticut, USA
Distance from station: SW 26mi, 42km
Updated: Mon, 07/15/2024 9:56am
Clear
Clear
 Wind from SW
Wind: SW 5 mph, 7 km/h
Temperature: 81°F, 27°C
Heat Index: 85°F, 29°C
Dew Point: 72°F, 22°C
Humidity: 74%
Barometer: 29.94 inHg, 1013.9 hPa
Clouds: Clear
Visibility: 10 miles, 16 km
2024/07/15 13:56 KOXC 151356Z 23004KT 10SM CLR 27/22 A2994 RMK AO2 SLP141 T02720222
 
KIJD - Willimantic/Windham Arpt, Connecticut, USA
Distance from station: E 28mi, 45km
Updated: Mon, 07/15/2024 9:52am
Clear
Clear
 Wind from varies
Wind: varies 6 mph, 9 km/h
Temperature: 82°F, 28°C
Heat Index: 86°F, 30°C
Dew Point: 72°F, 22°C
Humidity: 70%
Barometer: 29.90 inHg, 1012.5 hPa
Clouds: Clear
Visibility: 10 miles, 16 km
2024/07/15 13:52 KIJD 151352Z AUTO VRB05KT 10SM CLR 28/22 A2990 RMK AO2 SLP123 T02830222
KHVN - New Haven/Tweed Arpt, Connecticut, USA
Distance from station: SSW 31mi, 50km
Updated: Mon, 07/15/2024 9:53am
Clear
Clear
 Wind from W
Wind: W 5 mph, 7 km/h
Temperature: 84°F, 29°C
Heat Index: 90°F, 32°C
Dew Point: 73°F, 23°C
Humidity: 70%
Barometer: 29.90 inHg, 1012.5 hPa
Clouds: Clear
Visibility: 10 miles, 16 km
2024/07/15 13:53 KHVN 151353Z 26004KT 10SM CLR 29/23 A2990 RMK AO2 SLP124 T02890228
 
KBAF - Westfield/Barnes Muni, Massachusetts, USA
Distance from station: N 32mi, 52km
Updated: Mon, 07/15/2024 9:53am
Clear
Clear
 Wind from S
Wind: S 8 mph, 13 km/h
Temperature: 84°F, 29°C
Heat Index: 90°F, 32°C
Dew Point: 73°F, 23°C
Humidity: 70%
Barometer: 29.88 inHg, 1011.9 hPa
Clouds: Clear
Visibility: 10 miles, 16 km
2024/07/15 13:53 KBAF 151353Z 18007KT 10SM CLR 29/23 A2988 RMK AO2 SLP115 T02940233
KCEF - Chicopee/Westover AFB, Massachusetts, USA
Distance from station: NNE 37mi, 59km
Updated: Mon, 07/15/2024 9:55am
Partly cloudy
Partly cloudy
 Wind from SSW
Wind: SSW 8 mph, 13 km/h
Temperature: 84°F, 29°C
Heat Index: 90°F, 32°C
Dew Point: 73°F, 23°C
Humidity: 70%
Barometer: 29.85 inHg, 1010.8 hPa
Clouds: Partly cloudy
Visibility: 10 miles, 16 km
Cloud details: Few Clouds 9000 ft
Partly cloudy 22000 ft
2024/07/15 13:55 KCEF 151355Z 21007KT 10SM FEW090 SCT220 29/23 A2985 RMK AO2A SLP110 T02920226
 
KBDR - Bridgeport/Sikorsky Mem, Connecticut, USA
Distance from station: SSW 42mi, 68km
Updated: Mon, 07/15/2024 9:52am
Clear
Clear
 Wind from SW
Wind: SW 6 mph, 9 km/h
Temperature: 84°F, 29°C
Heat Index: 86°F, 30°C
Dew Point: 66°F, 19°C
Humidity: 55%
Barometer: 29.90 inHg, 1012.5 hPa
Clouds: Clear
Visibility: 10 miles, 16 km
2024/07/15 13:52 KBDR 151352Z 22005KT 10SM CLR 29/19 A2990 RMK AO2 SLP124 T02940194
KGON - Groton-New London Arpt, Connecticut, USA
Distance from station: SE 43mi, 69km
Updated: Mon, 07/15/2024 9:56am
Mostly cloudy
Mostly cloudy
 Wind from SW
Wind: SW 6 mph, 9 km/h
Temperature: 81°F, 27°C
Heat Index: 87°F, 31°C
Dew Point: 75°F, 24°C
Humidity: 84%
Barometer: 29.89 inHg, 1012.2 hPa
Clouds: Mostly cloudy
Visibility: 10 miles, 16 km
Cloud details: Mostly cloudy 11000 ft
2024/07/15 13:56 KGON 151356Z 23005KT 10SM BKN110 27/24 A2989 RMK AO2 SLP122 T02720239
 
KDXR - Danbury Muni, Connecticut, USA
Distance from station: WSW 45mi, 73km
Updated: Mon, 07/15/2024 9:53am
Clear
Clear
 Wind from WSW
Wind: WSW 7 mph, 11 km/h
Temperature: 84°F, 29°C
Heat Index: 88°F, 31°C
Dew Point: 70°F, 21°C
Humidity: 62%
Barometer: 29.92 inHg, 1013.2 hPa
Clouds: Clear
Visibility: 10 miles, 16 km
2024/07/15 13:53 KDXR 151353Z 24006KT 10SM CLR 29/21 A2992 RMK AO2 SLP127 T02890211
Number of visitors since April 1, 2024
Free Website Hit Counter
Free website hit counter